sensor_id;sensor_type;location;lat;lon;timestamp;P1;durP1;ratioP1;P2;durP2;ratioP2
76138;SDS011;65138;50.946;7.074;2023-01-10T00:00:22;0.70;;;0.55;;
76138;SDS011;65138;50.946;7.074;2023-01-10T00:02:49;1.38;;;0.75;;
76138;SDS011;65138;50.946;7.074;2023-01-10T00:05:16;1.13;;;0.75;;
76138;SDS011;65138;50.946;7.074;2023-01-10T00:07:42;0.90;;;0.88;;
76138;SDS011;65138;50.946;7.074;2023-01-10T00:10:08;1.17;;;0.52;;
76138;SDS011;65138;50.946;7.074;2023-01-10T00:12:34;1.15;;;0.65;;
76138;SDS011;65138;50.946;7.074;2023-01-10T00:15:19;1.90;;;0.80;;
76138;SDS011;65138;50.946;7.074;2023-01-10T00:17:44;1.25;;;0.70;;
76138;SDS011;65138;50.946;7.074;2023-01-10T00:20:10;1.77;;;0.93;;
76138;SDS011;65138;50.946;7.074;2023-01-10T00:22:36;1.88;;;0.63;;
76138;SDS011;65138;50.946;7.074;2023-01-10T00:25:02;1.52;;;0.50;;
76138;SDS011;65138;50.946;7.074;2023-01-10T00:27:27;1.20;;;0.82;;
76138;SDS011;65138;50.946;7.074;2023-01-10T00:29:56;1.23;;;0.52;;
76138;SDS011;65138;50.946;7.074;2023-01-10T00:32:25;0.60;;;0.60;;
76138;SDS011;65138;50.946;7.074;2023-01-10T00:34:50;1.88;;;0.75;;
76138;SDS011;65138;50.946;7.074;2023-01-10T00:37:16;0.85;;;0.70;;
76138;SDS011;65138;50.946;7.074;2023-01-10T00:39:42;1.02;;;0.60;;
76138;SDS011;65138;50.946;7.074;2023-01-10T00:42:08;1.05;;;0.70;;
76138;SDS011;65138;50.946;7.074;2023-01-10T00:44:53;1.15;;;0.73;;
76138;SDS011;65138;50.946;7.074;2023-01-10T00:47:19;1.42;;;0.65;;
76138;SDS011;65138;50.946;7.074;2023-01-10T00:49:45;0.93;;;0.80;;
76138;SDS011;65138;50.946;7.074;2023-01-10T00:52:10;1.05;;;0.93;;
76138;SDS011;65138;50.946;7.074;2023-01-10T00:54:36;1.10;;;0.73;;
76138;SDS011;65138;50.946;7.074;2023-01-10T00:57:02;0.75;;;0.65;;
76138;SDS011;65138;50.946;7.074;2023-01-10T00:59:27;1.30;;;0.68;;
76138;SDS011;65138;50.946;7.074;2023-01-10T01:01:53;1.50;;;0.68;;
76138;SDS011;65138;50.946;7.074;2023-01-10T01:04:19;0.57;;;0.52;;
76138;SDS011;65138;50.946;7.074;2023-01-10T01:06:45;0.77;;;0.45;;
76138;SDS011;65138;50.946;7.074;2023-01-10T01:09:12;0.95;;;0.73;;
76138;SDS011;65138;50.946;7.074;2023-01-10T01:11:38;0.93;;;0.55;;
76138;SDS011;65138;50.946;7.074;2023-01-10T01:14:03;1.33;;;0.57;;
76138;SDS011;65138;50.946;7.074;2023-01-10T01:16:29;0.93;;;0.68;;
76138;SDS011;65138;50.946;7.074;2023-01-10T01:18:55;2.15;;;0.75;;
76138;SDS011;65138;50.946;7.074;2023-01-10T01:21:21;1.42;;;0.80;;
76138;SDS011;65138;50.946;7.074;2023-01-10T01:23:52;1.75;;;0.50;;
76138;SDS011;65138;50.946;7.074;2023-01-10T01:26:20;1.33;;;0.88;;
76138;SDS011;65138;50.946;7.074;2023-01-10T01:28:49;1.70;;;0.60;;
76138;SDS011;65138;50.946;7.074;2023-01-10T01:31:15;0.88;;;0.57;;
76138;SDS011;65138;50.946;7.074;2023-01-10T01:33:41;1.25;;;0.65;;
76138;SDS011;65138;50.946;7.074;2023-01-10T01:36:10;2.50;;;0.63;;
76138;SDS011;65138;50.946;7.074;2023-01-10T01:38:37;0.98;;;0.20;;
76138;SDS011;65138;50.946;7.074;2023-01-10T01:41:03;1.40;;;0.65;;
76138;SDS011;65138;50.946;7.074;2023-01-10T01:46:26;1.00;;;0.70;;
76138;SDS011;65138;50.946;7.074;2023-01-10T01:48:52;2.15;;;0.93;;
76138;SDS011;65138;50.946;7.074;2023-01-10T01:51:19;1.55;;;0.70;;
76138;SDS011;65138;50.946;7.074;2023-01-10T01:53:59;2.50;;;0.60;;
76138;SDS011;65138;50.946;7.074;2023-01-10T01:56:32;0.90;;;0.55;;
76138;SDS011;65138;50.946;7.074;2023-01-10T01:59:08;1.55;;;0.73;;
76138;SDS011;65138;50.946;7.074;2023-01-10T02:01:45;1.42;;;0.70;;
76138;SDS011;65138;50.946;7.074;2023-01-10T02:04:16;1.85;;;0.50;;
76138;SDS011;65138;50.946;7.074;2023-01-10T02:06:48;2.22;;;0.75;;
76138;SDS011;65138;50.946;7.074;2023-01-10T02:11:58;1.92;;;0.60;;
76138;SDS011;65138;50.946;7.074;2023-01-10T02:14:25;1.45;;;0.50;;
76138;SDS011;65138;50.946;7.074;2023-01-10T02:16:51;2.47;;;0.88;;
76138;SDS011;65138;50.946;7.074;2023-01-10T02:19:24;1.70;;;0.70;;
76138;SDS011;65138;50.946;7.074;2023-01-10T02:30:33;1.17;;;0.60;;
76138;SDS011;65138;50.946;7.074;2023-01-10T02:44:13;1.25;;;0.88;;
76138;SDS011;65138;50.946;7.074;2023-01-10T02:46:48;1.63;;;0.68;;
76138;SDS011;65138;50.946;7.074;2023-01-10T02:49:14;0.88;;;0.50;;
76138;SDS011;65138;50.946;7.074;2023-01-10T02:51:40;1.63;;;0.63;;
76138;SDS011;65138;50.946;7.074;2023-01-10T02:54:06;1.63;;;0.60;;
76138;SDS011;65138;50.946;7.074;2023-01-10T02:57:03;1.13;;;0.60;;
76138;SDS011;65138;50.946;7.074;2023-01-10T03:05:21;2.22;;;0.65;;
76138;SDS011;65138;50.946;7.074;2023-01-10T03:07:59;1.95;;;0.90;;
76138;SDS011;65138;50.946;7.074;2023-01-10T03:11:08;3.40;;;0.60;;
76138;SDS011;65138;50.946;7.074;2023-01-10T03:15:53;1.05;;;0.57;;
76138;SDS011;65138;50.946;7.074;2023-01-10T03:18:25;1.42;;;0.70;;
76138;SDS011;65138;50.946;7.074;2023-01-10T03:20:56;2.03;;;0.77;;
76138;SDS011;65138;50.946;7.074;2023-01-10T03:23:23;1.92;;;1.02;;
76138;SDS011;65138;50.946;7.074;2023-01-10T03:25:50;2.22;;;0.82;;
76138;SDS011;65138;50.946;7.074;2023-01-10T03:28:25;2.47;;;0.93;;
76138;SDS011;65138;50.946;7.074;2023-01-10T03:31:07;2.65;;;0.93;;
76138;SDS011;65138;50.946;7.074;2023-01-10T03:33:38;1.80;;;0.63;;
76138;SDS011;65138;50.946;7.074;2023-01-10T03:36:22;1.75;;;0.85;;
76138;SDS011;65138;50.946;7.074;2023-01-10T03:38:56;1.02;;;0.68;;
76138;SDS011;65138;50.946;7.074;2023-01-10T03:41:39;1.98;;;0.95;;
76138;SDS011;65138;50.946;7.074;2023-01-10T03:47:08;1.08;;;0.30;;
76138;SDS011;65138;50.946;7.074;2023-01-10T03:49:48;2.72;;;0.77;;
76138;SDS011;65138;50.946;7.074;2023-01-10T03:52:18;1.30;;;0.70;;
76138;SDS011;65138;50.946;7.074;2023-01-10T03:54:45;1.23;;;0.40;;
76138;SDS011;65138;50.946;7.074;2023-01-10T03:57:21;2.00;;;0.47;;
76138;SDS011;65138;50.946;7.074;2023-01-10T03:59:51;1.42;;;0.60;;
76138;SDS011;65138;50.946;7.074;2023-01-10T04:02:19;1.30;;;0.80;;
76138;SDS011;65138;50.946;7.074;2023-01-10T04:04:45;1.77;;;0.35;;
76138;SDS011;65138;50.946;7.074;2023-01-10T04:07:11;2.75;;;0.63;;
76138;SDS011;65138;50.946;7.074;2023-01-10T04:09:36;1.48;;;0.70;;
76138;SDS011;65138;50.946;7.074;2023-01-10T04:12:02;1.48;;;0.70;;
76138;SDS011;65138;50.946;7.074;2023-01-10T04:14:28;2.25;;;0.77;;
76138;SDS011;65138;50.946;7.074;2023-01-10T04:16:53;2.00;;;0.80;;
76138;SDS011;65138;50.946;7.074;2023-01-10T04:19:19;2.17;;;0.70;;
76138;SDS011;65138;50.946;7.074;2023-01-10T04:21:45;1.42;;;0.70;;
76138;SDS011;65138;50.946;7.074;2023-01-10T04:24:11;0.82;;;0.52;;
76138;SDS011;65138;50.946;7.074;2023-01-10T04:26:36;1.50;;;0.40;;
76138;SDS011;65138;50.946;7.074;2023-01-10T04:29:02;1.35;;;0.80;;
76138;SDS011;65138;50.946;7.074;2023-01-10T04:31:30;2.10;;;0.63;;
76138;SDS011;65138;50.946;7.074;2023-01-10T04:33:55;2.42;;;0.43;;
76138;SDS011;65138;50.946;7.074;2023-01-10T04:36:21;1.63;;;0.50;;
76138;SDS011;65138;50.946;7.074;2023-01-10T04:38:47;1.80;;;0.40;;
76138;SDS011;65138;50.946;7.074;2023-01-10T04:41:12;2.03;;;0.98;;
76138;SDS011;65138;50.946;7.074;2023-01-10T04:43:38;1.52;;;0.90;;
76138;SDS011;65138;50.946;7.074;2023-01-10T04:46:03;2.10;;;1.00;;
76138;SDS011;65138;50.946;7.074;2023-01-10T04:48:29;1.63;;;0.73;;
76138;SDS011;65138;50.946;7.074;2023-01-10T04:50:55;3.17;;;0.70;;
76138;SDS011;65138;50.946;7.074;2023-01-10T04:53:21;0.98;;;0.80;;
76138;SDS011;65138;50.946;7.074;2023-01-10T04:55:47;1.42;;;0.80;;
76138;SDS011;65138;50.946;7.074;2023-01-10T04:58:12;2.35;;;0.60;;
76138;SDS011;65138;50.946;7.074;2023-01-10T05:00:38;1.92;;;0.70;;
76138;SDS011;65138;50.946;7.074;2023-01-10T05:03:04;2.03;;;0.93;;
76138;SDS011;65138;50.946;7.074;2023-01-10T05:05:30;1.63;;;0.50;;
76138;SDS011;65138;50.946;7.074;2023-01-10T05:07:56;3.03;;;0.80;;
76138;SDS011;65138;50.946;7.074;2023-01-10T05:10:22;3.95;;;0.90;;
76138;SDS011;65138;50.946;7.074;2023-01-10T05:12:48;2.53;;;0.57;;
76138;SDS011;65138;50.946;7.074;2023-01-10T05:15:13;2.55;;;0.70;;
76138;SDS011;65138;50.946;7.074;2023-01-10T05:17:39;2.35;;;0.88;;
76138;SDS011;65138;50.946;7.074;2023-01-10T05:20:05;2.10;;;0.98;;
76138;SDS011;65138;50.946;7.074;2023-01-10T05:22:31;2.15;;;0.95;;
76138;SDS011;65138;50.946;7.074;2023-01-10T05:24:57;2.88;;;0.90;;
76138;SDS011;65138;50.946;7.074;2023-01-10T05:27:23;3.25;;;0.82;;
76138;SDS011;65138;50.946;7.074;2023-01-10T05:29:49;1.02;;;0.65;;
76138;SDS011;65138;50.946;7.074;2023-01-10T05:32:14;2.60;;;0.52;;
76138;SDS011;65138;50.946;7.074;2023-01-10T05:34:40;2.30;;;0.80;;
76138;SDS011;65138;50.946;7.074;2023-01-10T05:37:06;4.05;;;1.13;;
76138;SDS011;65138;50.946;7.074;2023-01-10T05:39:32;10.18;;;1.42;;
76138;SDS011;65138;50.946;7.074;2023-01-10T05:42:00;5.40;;;1.27;;
76138;SDS011;65138;50.946;7.074;2023-01-10T05:44:26;5.93;;;1.58;;
76138;SDS011;65138;50.946;7.074;2023-01-10T05:46:54;5.78;;;0.68;;
76138;SDS011;65138;50.946;7.074;2023-01-10T05:49:20;5.88;;;1.10;;
76138;SDS011;65138;50.946;7.074;2023-01-10T05:51:46;8.25;;;1.48;;
76138;SDS011;65138;50.946;7.074;2023-01-10T05:54:11;8.00;;;2.03;;
76138;SDS011;65138;50.946;7.074;2023-01-10T05:56:37;9.02;;;1.77;;
76138;SDS011;65138;50.946;7.074;2023-01-10T05:59:02;6.90;;;1.98;;
76138;SDS011;65138;50.946;7.074;2023-01-10T06:01:28;8.48;;;2.17;;
76138;SDS011;65138;50.946;7.074;2023-01-10T06:03:54;6.25;;;1.90;;
76138;SDS011;65138;50.946;7.074;2023-01-10T06:06:19;6.35;;;1.88;;
76138;SDS011;65138;50.946;7.074;2023-01-10T06:08:45;7.20;;;1.70;;
76138;SDS011;65138;50.946;7.074;2023-01-10T06:11:10;7.60;;;1.80;;
76138;SDS011;65138;50.946;7.074;2023-01-10T06:13:36;7.30;;;1.42;;
76138;SDS011;65138;50.946;7.074;2023-01-10T06:16:02;5.82;;;1.75;;
76138;SDS011;65138;50.946;7.074;2023-01-10T06:18:28;5.97;;;1.67;;
76138;SDS011;65138;50.946;7.074;2023-01-10T06:20:53;6.93;;;1.30;;
76138;SDS011;65138;50.946;7.074;2023-01-10T06:23:19;6.88;;;1.60;;
76138;SDS011;65138;50.946;7.074;2023-01-10T06:25:45;3.72;;;1.27;;
76138;SDS011;65138;50.946;7.074;2023-01-10T06:28:12;6.47;;;1.38;;
76138;SDS011;65138;50.946;7.074;2023-01-10T06:30:39;4.72;;;1.17;;
76138;SDS011;65138;50.946;7.074;2023-01-10T06:33:07;5.25;;;0.90;;
76138;SDS011;65138;50.946;7.074;2023-01-10T06:35:34;5.07;;;1.15;;
76138;SDS011;65138;50.946;7.074;2023-01-10T06:38:00;3.08;;;0.50;;
76138;SDS011;65138;50.946;7.074;2023-01-10T06:40:27;2.55;;;0.90;;
76138;SDS011;65138;50.946;7.074;2023-01-10T06:42:53;5.45;;;1.40;;
76138;SDS011;65138;50.946;7.074;2023-01-10T06:45:18;7.50;;;1.05;;
76138;SDS011;65138;50.946;7.074;2023-01-10T06:47:44;5.65;;;1.23;;
76138;SDS011;65138;50.946;7.074;2023-01-10T06:50:10;3.47;;;1.52;;
76138;SDS011;65138;50.946;7.074;2023-01-10T06:52:37;3.78;;;1.20;;
76138;SDS011;65138;50.946;7.074;2023-01-10T06:55:04;4.05;;;1.35;;
76138;SDS011;65138;50.946;7.074;2023-01-10T06:57:31;9.48;;;4.20;;
76138;SDS011;65138;50.946;7.074;2023-01-10T06:59:59;7.65;;;2.65;;
76138;SDS011;65138;50.946;7.074;2023-01-10T07:02:26;11.27;;;2.20;;
76138;SDS011;65138;50.946;7.074;2023-01-10T07:04:52;7.93;;;2.60;;
76138;SDS011;65138;50.946;7.074;2023-01-10T07:07:17;11.40;;;3.25;;
76138;SDS011;65138;50.946;7.074;2023-01-10T07:09:43;12.25;;;3.10;;
76138;SDS011;65138;50.946;7.074;2023-01-10T07:12:10;13.65;;;3.00;;
76138;SDS011;65138;50.946;7.074;2023-01-10T07:14:35;9.40;;;3.28;;
76138;SDS011;65138;50.946;7.074;2023-01-10T07:17:01;18.27;;;8.63;;
76138;SDS011;65138;50.946;7.074;2023-01-10T07:19:27;10.07;;;4.00;;
76138;SDS011;65138;50.946;7.074;2023-01-10T07:21:52;9.27;;;3.78;;
76138;SDS011;65138;50.946;7.074;2023-01-10T07:24:18;13.05;;;4.13;;
76138;SDS011;65138;50.946;7.074;2023-01-10T07:26:44;10.52;;;3.53;;
76138;SDS011;65138;50.946;7.074;2023-01-10T07:29:09;8.50;;;3.30;;
76138;SDS011;65138;50.946;7.074;2023-01-10T07:31:35;10.07;;;3.33;;
76138;SDS011;65138;50.946;7.074;2023-01-10T07:34:00;9.07;;;3.30;;
76138;SDS011;65138;50.946;7.074;2023-01-10T07:36:26;7.38;;;2.92;;
76138;SDS011;65138;50.946;7.074;2023-01-10T07:38:51;8.88;;;3.05;;
76138;SDS011;65138;50.946;7.074;2023-01-10T07:41:17;8.70;;;3.00;;
76138;SDS011;65138;50.946;7.074;2023-01-10T07:43:43;6.18;;;3.20;;
76138;SDS011;65138;50.946;7.074;2023-01-10T07:46:09;9.15;;;3.30;;
76138;SDS011;65138;50.946;7.074;2023-01-10T07:48:36;9.55;;;3.33;;
76138;SDS011;65138;50.946;7.074;2023-01-10T07:51:03;7.15;;;2.70;;
76138;SDS011;65138;50.946;7.074;2023-01-10T07:53:29;9.45;;;3.03;;
76138;SDS011;65138;50.946;7.074;2023-01-10T07:55:59;9.43;;;3.05;;
76138;SDS011;65138;50.946;7.074;2023-01-10T07:58:26;8.20;;;2.85;;
76138;SDS011;65138;50.946;7.074;2023-01-10T08:00:55;8.90;;;2.97;;
76138;SDS011;65138;50.946;7.074;2023-01-10T08:03:25;6.72;;;3.05;;
76138;SDS011;65138;50.946;7.074;2023-01-10T08:06:01;7.53;;;3.03;;
76138;SDS011;65138;50.946;7.074;2023-01-10T08:08:28;7.05;;;2.85;;
76138;SDS011;65138;50.946;7.074;2023-01-10T08:10:57;8.18;;;3.28;;
76138;SDS011;65138;50.946;7.074;2023-01-10T08:13:24;9.80;;;3.50;;
76138;SDS011;65138;50.946;7.074;2023-01-10T08:15:50;7.70;;;2.78;;
76138;SDS011;65138;50.946;7.074;2023-01-10T08:18:16;11.27;;;2.42;;
76138;SDS011;65138;50.946;7.074;2023-01-10T08:20:43;5.78;;;2.42;;
76138;SDS011;65138;50.946;7.074;2023-01-10T08:23:11;9.05;;;2.85;;
76138;SDS011;65138;50.946;7.074;2023-01-10T08:25:37;8.07;;;2.75;;
76138;SDS011;65138;50.946;7.074;2023-01-10T08:28:06;8.60;;;3.00;;
76138;SDS011;65138;50.946;7.074;2023-01-10T08:30:31;6.30;;;2.22;;
76138;SDS011;65138;50.946;7.074;2023-01-10T08:32:57;7.05;;;2.47;;
76138;SDS011;65138;50.946;7.074;2023-01-10T08:35:25;6.03;;;2.15;;
76138;SDS011;65138;50.946;7.074;2023-01-10T08:37:51;6.60;;;2.47;;
76138;SDS011;65138;50.946;7.074;2023-01-10T08:40:16;6.72;;;2.45;;
76138;SDS011;65138;50.946;7.074;2023-01-10T08:42:42;5.35;;;2.45;;
76138;SDS011;65138;50.946;7.074;2023-01-10T08:45:08;7.03;;;2.35;;
76138;SDS011;65138;50.946;7.074;2023-01-10T08:47:34;7.10;;;2.08;;
76138;SDS011;65138;50.946;7.074;2023-01-10T08:49:59;6.88;;;2.88;;
76138;SDS011;65138;50.946;7.074;2023-01-10T08:52:25;6.15;;;2.00;;
76138;SDS011;65138;50.946;7.074;2023-01-10T08:54:50;9.05;;;2.97;;
76138;SDS011;65138;50.946;7.074;2023-01-10T08:57:16;6.95;;;2.10;;
76138;SDS011;65138;50.946;7.074;2023-01-10T08:59:42;6.03;;;2.50;;
76138;SDS011;65138;50.946;7.074;2023-01-10T09:02:09;5.20;;;2.10;;
76138;SDS011;65138;50.946;7.074;2023-01-10T09:04:37;5.45;;;2.47;;
76138;SDS011;65138;50.946;7.074;2023-01-10T09:07:03;5.57;;;2.00;;
76138;SDS011;65138;50.946;7.074;2023-01-10T09:09:28;5.20;;;2.15;;
76138;SDS011;65138;50.946;7.074;2023-01-10T09:11:54;6.68;;;1.52;;
76138;SDS011;65138;50.946;7.074;2023-01-10T09:14:19;4.45;;;1.70;;
76138;SDS011;65138;50.946;7.074;2023-01-10T09:16:45;3.97;;;1.80;;
76138;SDS011;65138;50.946;7.074;2023-01-10T09:19:10;6.10;;;2.20;;
76138;SDS011;65138;50.946;7.074;2023-01-10T09:21:36;6.95;;;2.10;;
76138;SDS011;65138;50.946;7.074;2023-01-10T09:24:02;4.15;;;2.03;;
76138;SDS011;65138;50.946;7.074;2023-01-10T09:26:30;5.20;;;2.03;;
76138;SDS011;65138;50.946;7.074;2023-01-10T09:28:56;5.53;;;2.03;;
76138;SDS011;65138;50.946;7.074;2023-01-10T09:31:21;8.45;;;2.72;;
76138;SDS011;65138;50.946;7.074;2023-01-10T09:33:47;4.82;;;2.15;;
76138;SDS011;65138;50.946;7.074;2023-01-10T09:36:13;7.03;;;2.50;;
76138;SDS011;65138;50.946;7.074;2023-01-10T09:38:39;6.30;;;2.30;;
76138;SDS011;65138;50.946;7.074;2023-01-10T09:49:27;7.57;;;1.80;;
76138;SDS011;65138;50.946;7.074;2023-01-10T09:52:05;4.90;;;1.88;;
76138;SDS011;65138;50.946;7.074;2023-01-10T09:54:54;5.25;;;1.70;;
76138;SDS011;65138;50.946;7.074;2023-01-10T09:57:21;6.00;;;2.08;;
76138;SDS011;65138;50.946;7.074;2023-01-10T09:59:47;9.02;;;2.20;;
76138;SDS011;65138;50.946;7.074;2023-01-10T10:05:24;6.60;;;1.90;;
76138;SDS011;65138;50.946;7.074;2023-01-10T10:07:55;8.43;;;2.13;;
76138;SDS011;65138;50.946;7.074;2023-01-10T10:10:40;6.75;;;2.17;;
76138;SDS011;65138;50.946;7.074;2023-01-10T10:13:59;9.00;;;2.03;;
76138;SDS011;65138;50.946;7.074;2023-01-10T10:18:37;6.97;;;2.13;;
76138;SDS011;65138;50.946;7.074;2023-01-10T10:21:48;7.93;;;1.17;;
76138;SDS011;65138;50.946;7.074;2023-01-10T10:24:22;7.07;;;1.80;;
76138;SDS011;65138;50.946;7.074;2023-01-10T10:29:47;6.15;;;1.95;;
76138;SDS011;65138;50.946;7.074;2023-01-10T10:35:25;6.70;;;1.88;;
76138;SDS011;65138;50.946;7.074;2023-01-10T10:38:13;6.25;;;1.75;;
76138;SDS011;65138;50.946;7.074;2023-01-10T10:40:44;6.13;;;1.25;;
76138;SDS011;65138;50.946;7.074;2023-01-10T10:43:21;6.40;;;1.85;;
76138;SDS011;65138;50.946;7.074;2023-01-10T10:45:56;4.50;;;1.75;;
76138;SDS011;65138;50.946;7.074;2023-01-10T10:48:38;5.28;;;2.10;;
76138;SDS011;65138;50.946;7.074;2023-01-10T10:51:28;6.50;;;1.15;;
76138;SDS011;65138;50.946;7.074;2023-01-10T10:54:01;4.07;;;1.20;;
76138;SDS011;65138;50.946;7.074;2023-01-10T10:56:27;6.40;;;1.88;;
76138;SDS011;65138;50.946;7.074;2023-01-10T10:58:55;5.35;;;1.70;;
76138;SDS011;65138;50.946;7.074;2023-01-10T11:01:23;4.63;;;1.60;;
76138;SDS011;65138;50.946;7.074;2023-01-10T11:03:57;3.35;;;1.25;;
76138;SDS011;65138;50.946;7.074;2023-01-10T11:06:32;5.90;;;1.50;;
76138;SDS011;65138;50.946;7.074;2023-01-10T11:09:02;5.53;;;1.33;;
76138;SDS011;65138;50.946;7.074;2023-01-10T11:11:31;4.47;;;1.50;;
76138;SDS011;65138;50.946;7.074;2023-01-10T11:21:39;3.97;;;1.48;;
76138;SDS011;65138;50.946;7.074;2023-01-10T11:24:17;3.08;;;1.20;;
76138;SDS011;65138;50.946;7.074;2023-01-10T11:26:53;4.80;;;1.58;;
76138;SDS011;65138;50.946;7.074;2023-01-10T11:29:23;5.78;;;1.48;;
76138;SDS011;65138;50.946;7.074;2023-01-10T11:32:11;4.30;;;1.08;;
76138;SDS011;65138;50.946;7.074;2023-01-10T11:34:39;4.40;;;1.40;;
76138;SDS011;65138;50.946;7.074;2023-01-10T11:37:17;2.97;;;1.50;;
76138;SDS011;65138;50.946;7.074;2023-01-10T11:39:45;4.50;;;1.20;;
76138;SDS011;65138;50.946;7.074;2023-01-10T11:44:48;5.35;;;1.55;;
76138;SDS011;65138;50.946;7.074;2023-01-10T11:47:14;4.00;;;1.13;;
76138;SDS011;65138;50.946;7.074;2023-01-10T11:49:44;3.65;;;1.45;;
76138;SDS011;65138;50.946;7.074;2023-01-10T11:52:44;4.18;;;1.30;;
76138;SDS011;65138;50.946;7.074;2023-01-10T11:55:07;5.88;;;2.28;;
76138;SDS011;65138;50.946;7.074;2023-01-10T11:57:33;4.22;;;1.17;;
76138;SDS011;65138;50.946;7.074;2023-01-10T12:00:00;4.35;;;1.55;;
76138;SDS011;65138;50.946;7.074;2023-01-10T12:02:40;4.93;;;1.40;;
76138;SDS011;65138;50.946;7.074;2023-01-10T12:05:17;3.92;;;1.40;;
76138;SDS011;65138;50.946;7.074;2023-01-10T12:08:04;3.80;;;1.23;;
76138;SDS011;65138;50.946;7.074;2023-01-10T12:10:32;4.93;;;1.25;;
76138;SDS011;65138;50.946;7.074;2023-01-10T12:13:05;3.33;;;1.20;;
76138;SDS011;65138;50.946;7.074;2023-01-10T12:15:37;6.57;;;1.70;;
76138;SDS011;65138;50.946;7.074;2023-01-10T12:18:03;9.30;;;1.50;;
76138;SDS011;65138;50.946;7.074;2023-01-10T12:20:38;7.53;;;1.55;;
76138;SDS011;65138;50.946;7.074;2023-01-10T12:23:10;5.35;;;1.58;;
76138;SDS011;65138;50.946;7.074;2023-01-10T12:25:41;5.80;;;1.65;;
76138;SDS011;65138;50.946;7.074;2023-01-10T12:28:22;6.60;;;1.80;;
76138;SDS011;65138;50.946;7.074;2023-01-10T12:30:52;5.38;;;1.73;;
76138;SDS011;65138;50.946;7.074;2023-01-10T12:33:53;6.75;;;1.50;;
76138;SDS011;65138;50.946;7.074;2023-01-10T12:36:36;5.38;;;1.70;;
76138;SDS011;65138;50.946;7.074;2023-01-10T12:44:42;3.80;;;1.10;;
76138;SDS011;65138;50.946;7.074;2023-01-10T12:49:52;4.85;;;0.88;;
76138;SDS011;65138;50.946;7.074;2023-01-10T12:52:40;3.47;;;1.35;;
76138;SDS011;65138;50.946;7.074;2023-01-10T12:55:21;4.82;;;0.80;;
76138;SDS011;65138;50.946;7.074;2023-01-10T12:57:50;3.90;;;1.13;;
76138;SDS011;65138;50.946;7.074;2023-01-10T13:02:48;4.47;;;0.98;;
76138;SDS011;65138;50.946;7.074;2023-01-10T13:05:22;5.35;;;1.20;;
76138;SDS011;65138;50.946;7.074;2023-01-10T13:07:50;4.40;;;1.33;;
76138;SDS011;65138;50.946;7.074;2023-01-10T13:10:22;3.30;;;1.25;;
76138;SDS011;65138;50.946;7.074;2023-01-10T13:12:52;3.53;;;1.20;;
76138;SDS011;65138;50.946;7.074;2023-01-10T13:15:52;3.22;;;1.00;;
76138;SDS011;65138;50.946;7.074;2023-01-10T13:18:26;3.63;;;1.33;;
76138;SDS011;65138;50.946;7.074;2023-01-10T13:23:29;3.95;;;1.33;;
76138;SDS011;65138;50.946;7.074;2023-01-10T13:26:04;4.53;;;1.33;;
76138;SDS011;65138;50.946;7.074;2023-01-10T13:28:33;5.45;;;1.25;;
76138;SDS011;65138;50.946;7.074;2023-01-10T13:31:21;4.22;;;1.23;;
76138;SDS011;65138;50.946;7.074;2023-01-10T13:36:27;7.18;;;1.67;;
76138;SDS011;65138;50.946;7.074;2023-01-10T13:38:56;8.13;;;3.28;;
76138;SDS011;65138;50.946;7.074;2023-01-10T13:42:08;9.90;;;3.78;;
76138;SDS011;65138;50.946;7.074;2023-01-10T13:51:14;8.40;;;2.13;;
76138;SDS011;65138;50.946;7.074;2023-01-10T13:53:55;6.03;;;1.85;;
76138;SDS011;65138;50.946;7.074;2023-01-10T13:56:29;6.43;;;2.08;;
76138;SDS011;65138;50.946;7.074;2023-01-10T13:58:55;6.03;;;1.80;;
76138;SDS011;65138;50.946;7.074;2023-01-10T14:01:39;5.25;;;2.05;;
76138;SDS011;65138;50.946;7.074;2023-01-10T14:04:32;5.80;;;1.83;;
76138;SDS011;65138;50.946;7.074;2023-01-10T14:09:49;20.83;;;10.30;;
76138;SDS011;65138;50.946;7.074;2023-01-10T14:12:18;17.38;;;9.80;;
76138;SDS011;65138;50.946;7.074;2023-01-10T14:19:44;15.93;;;6.35;;
76138;SDS011;65138;50.946;7.074;2023-01-10T14:22:25;11.40;;;5.30;;
76138;SDS011;65138;50.946;7.074;2023-01-10T14:24:55;12.43;;;5.18;;
76138;SDS011;65138;50.946;7.074;2023-01-10T14:27:22;10.60;;;4.68;;
76138;SDS011;65138;50.946;7.074;2023-01-10T14:32:30;11.50;;;4.57;;
76138;SDS011;65138;50.946;7.074;2023-01-10T14:35:04;9.55;;;2.97;;
76138;SDS011;65138;50.946;7.074;2023-01-10T14:37:39;9.05;;;3.05;;
76138;SDS011;65138;50.946;7.074;2023-01-10T14:40:19;7.35;;;3.03;;
76138;SDS011;65138;50.946;7.074;2023-01-10T14:42:56;7.18;;;2.67;;
76138;SDS011;65138;50.946;7.074;2023-01-10T14:45:34;8.07;;;2.70;;
76138;SDS011;65138;50.946;7.074;2023-01-10T14:48:21;8.93;;;3.00;;
76138;SDS011;65138;50.946;7.074;2023-01-10T14:50:48;6.88;;;2.85;;
76138;SDS011;65138;50.946;7.074;2023-01-10T14:53:24;5.43;;;2.00;;
76138;SDS011;65138;50.946;7.074;2023-01-10T14:55:54;5.72;;;2.33;;
76138;SDS011;65138;50.946;7.074;2023-01-10T14:58:20;6.32;;;2.05;;
76138;SDS011;65138;50.946;7.074;2023-01-10T15:00:46;5.90;;;2.47;;
76138;SDS011;65138;50.946;7.074;2023-01-10T15:03:17;5.30;;;2.20;;
76138;SDS011;65138;50.946;7.074;2023-01-10T15:05:46;7.30;;;2.38;;
76138;SDS011;65138;50.946;7.074;2023-01-10T15:11:00;5.53;;;2.17;;
76138;SDS011;65138;50.946;7.074;2023-01-10T15:13:33;6.25;;;2.05;;
76138;SDS011;65138;50.946;7.074;2023-01-10T15:16:02;5.63;;;1.95;;
76138;SDS011;65138;50.946;7.074;2023-01-10T15:18:36;6.47;;;2.45;;
76138;SDS011;65138;50.946;7.074;2023-01-10T15:21:05;5.93;;;2.00;;
76138;SDS011;65138;50.946;7.074;2023-01-10T15:23:38;5.78;;;1.50;;
76138;SDS011;65138;50.946;7.074;2023-01-10T15:26:07;4.75;;;2.03;;
76138;SDS011;65138;50.946;7.074;2023-01-10T15:28:35;8.13;;;1.80;;
76138;SDS011;65138;50.946;7.074;2023-01-10T15:31:04;4.45;;;1.90;;
76138;SDS011;65138;50.946;7.074;2023-01-10T15:33:33;4.47;;;1.80;;
76138;SDS011;65138;50.946;7.074;2023-01-10T15:36:33;4.07;;;1.02;;
76138;SDS011;65138;50.946;7.074;2023-01-10T15:38:53;5.55;;;1.73;;
76138;SDS011;65138;50.946;7.074;2023-01-10T15:41:19;6.50;;;2.05;;
76138;SDS011;65138;50.946;7.074;2023-01-10T15:43:47;5.15;;;1.80;;
76138;SDS011;65138;50.946;7.074;2023-01-10T15:46:21;5.82;;;1.80;;
76138;SDS011;65138;50.946;7.074;2023-01-10T15:51:26;5.03;;;1.75;;
76138;SDS011;65138;50.946;7.074;2023-01-10T15:54:08;4.43;;;1.63;;
76138;SDS011;65138;50.946;7.074;2023-01-10T15:56:59;3.50;;;1.17;;
76138;SDS011;65138;50.946;7.074;2023-01-10T15:59:40;6.65;;;1.58;;
76138;SDS011;65138;50.946;7.074;2023-01-10T16:04:37;2.92;;;1.40;;
76138;SDS011;65138;50.946;7.074;2023-01-10T16:12:45;3.80;;;1.45;;
76138;SDS011;65138;50.946;7.074;2023-01-10T16:15:31;3.92;;;1.25;;
76138;SDS011;65138;50.946;7.074;2023-01-10T16:17:59;4.95;;;1.30;;
76138;SDS011;65138;50.946;7.074;2023-01-10T16:20:26;3.47;;;0.90;;
76138;SDS011;65138;50.946;7.074;2023-01-10T16:22:54;4.35;;;1.42;;
76138;SDS011;65138;50.946;7.074;2023-01-10T16:25:27;5.20;;;1.25;;
76138;SDS011;65138;50.946;7.074;2023-01-10T16:27:57;21.00;;;8.43;;
76138;SDS011;65138;50.946;7.074;2023-01-10T16:32:54;13.40;;;5.75;;
76138;SDS011;65138;50.946;7.074;2023-01-10T16:35:21;4.93;;;2.40;;
76138;SDS011;65138;50.946;7.074;2023-01-10T16:37:48;5.45;;;2.17;;
76138;SDS011;65138;50.946;7.074;2023-01-10T16:40:19;4.45;;;1.38;;
76138;SDS011;65138;50.946;7.074;2023-01-10T16:42:47;3.70;;;1.92;;
76138;SDS011;65138;50.946;7.074;2023-01-10T16:45:31;4.15;;;1.58;;
76138;SDS011;65138;50.946;7.074;2023-01-10T16:47:57;4.68;;;1.77;;
76138;SDS011;65138;50.946;7.074;2023-01-10T16:50:23;4.95;;;1.60;;
76138;SDS011;65138;50.946;7.074;2023-01-10T16:52:48;4.30;;;1.60;;
76138;SDS011;65138;50.946;7.074;2023-01-10T16:55:15;3.67;;;1.48;;
76138;SDS011;65138;50.946;7.074;2023-01-10T16:57:42;3.08;;;1.25;;
76138;SDS011;65138;50.946;7.074;2023-01-10T17:00:12;3.63;;;1.25;;